createdAt,value
2023-02-17T00:00:23.647Z,100.00
2023-02-17T00:02:50.566Z,100.00
2023-02-17T00:05:17.503Z,100.00
2023-02-17T00:07:44.398Z,100.00
2023-02-17T00:10:11.408Z,100.00
2023-02-17T00:12:40.712Z,100.00
2023-02-17T00:15:10.262Z,100.00
2023-02-17T00:17:37.278Z,100.00
2023-02-17T00:20:05.049Z,100.00
2023-02-17T00:22:31.964Z,100.00
2023-02-17T00:25:01.832Z,100.00
2023-02-17T00:27:28.738Z,100.00
2023-02-17T00:29:55.693Z,100.00
2023-02-17T00:32:22.605Z,100.00
2023-02-17T00:34:56.859Z,100.00
2023-02-17T00:37:28.405Z,100.00
2023-02-17T00:39:55.325Z,100.00
2023-02-17T00:42:22.231Z,100.00
2023-02-17T00:44:51.303Z,100.00
2023-02-17T00:47:18.216Z,100.00
2023-02-17T00:49:47.540Z,100.00
2023-02-17T00:52:16.868Z,100.00
2023-02-17T00:54:43.719Z,100.00
2023-02-17T00:57:10.917Z,100.00
2023-02-17T00:59:37.813Z,100.00
2023-02-17T01:02:04.775Z,100.00
2023-02-17T01:04:34.729Z,100.00
2023-02-17T01:07:01.707Z,100.00
2023-02-17T01:09:31.801Z,100.00
2023-02-17T01:11:58.703Z,100.00
2023-02-17T01:14:25.731Z,100.00
2023-02-17T01:16:52.614Z,100.00
2023-02-17T01:19:19.916Z,100.00
2023-02-17T01:21:49.073Z,100.00
2023-02-17T01:24:15.942Z,100.00
2023-02-17T01:26:42.808Z,100.00
2023-02-17T01:29:12.255Z,100.00
2023-02-17T01:31:42.572Z,100.00
2023-02-17T01:34:10.926Z,100.00
2023-02-17T01:36:37.955Z,100.00
2023-02-17T01:39:07.288Z,100.00
2023-02-17T01:41:37.460Z,100.00
2023-02-17T01:44:15.256Z,100.00
2023-02-17T01:46:49.141Z,100.00
2023-02-17T01:49:23.676Z,100.00
2023-02-17T01:52:00.910Z,100.00
2023-02-17T01:54:44.167Z,100.00
2023-02-17T01:57:16.826Z,100.00
2023-02-17T01:59:45.464Z,100.00
2023-02-17T02:02:14.943Z,100.00
2023-02-17T02:04:48.434Z,100.00
2023-02-17T02:07:23.529Z,100.00
2023-02-17T02:09:55.945Z,100.00
2023-02-17T02:12:32.655Z,100.00
2023-02-17T02:15:09.123Z,100.00
2023-02-17T02:18:16.790Z,100.00
2023-02-17T02:21:25.547Z,100.00
2023-02-17T02:24:13.712Z,100.00
2023-02-17T02:26:57.420Z,100.00
2023-02-17T02:30:16.595Z,100.00
2023-02-17T02:33:11.863Z,100.00
2023-02-17T02:35:48.441Z,100.00
2023-02-17T02:38:41.340Z,100.00
2023-02-17T02:41:31.396Z,100.00
2023-02-17T02:44:09.129Z,100.00
2023-02-17T02:46:36.481Z,100.00
2023-02-17T02:49:04.838Z,100.00
2023-02-17T02:51:55.783Z,100.00
2023-02-17T02:54:29.273Z,100.00
2023-02-17T02:57:05.009Z,100.00
2023-02-17T03:00:10.218Z,100.00
2023-02-17T03:03:08.588Z,100.00
2023-02-17T03:05:45.288Z,100.00
2023-02-17T03:08:28.538Z,100.00
2023-02-17T03:10:58.126Z,100.00
2023-02-17T03:13:25.125Z,100.00
2023-02-17T03:15:52.312Z,100.00
2023-02-17T03:18:22.762Z,100.00
2023-02-17T03:20:57.795Z,100.00
2023-02-17T03:23:34.725Z,100.00
2023-02-17T03:26:01.706Z,100.00
2023-02-17T03:28:34.620Z,100.00
2023-02-17T03:31:04.478Z,100.00
2023-02-17T03:33:31.414Z,100.00
2023-02-17T03:36:03.143Z,100.00
2023-02-17T03:38:31.280Z,100.00
2023-02-17T03:41:01.255Z,100.00
2023-02-17T03:43:30.204Z,100.00
2023-02-17T03:45:57.665Z,100.00
2023-02-17T03:48:24.749Z,100.00
2023-02-17T03:50:56.704Z,100.00
2023-02-17T03:53:23.620Z,100.00
2023-02-17T03:55:50.469Z,100.00
2023-02-17T03:58:22.874Z,100.00
2023-02-17T04:00:52.315Z,100.00
2023-02-17T04:03:19.243Z,100.00
2023-02-17T04:05:48.761Z,100.00
2023-02-17T04:08:15.869Z,100.00
2023-02-17T04:10:45.184Z,100.00
2023-02-17T04:13:12.171Z,100.00
2023-02-17T04:15:44.616Z,100.00
2023-02-17T04:18:15.086Z,100.00
2023-02-17T04:20:43.209Z,100.00
2023-02-17T04:23:11.888Z,100.00
2023-02-17T04:25:38.973Z,100.00
2023-02-17T04:28:06.901Z,100.00
2023-02-17T04:30:34.602Z,100.00
2023-02-17T04:33:01.821Z,100.00
2023-02-17T04:35:28.736Z,100.00
2023-02-17T04:37:58.244Z,100.00
2023-02-17T04:40:25.163Z,100.00
2023-02-17T04:42:54.295Z,100.00
2023-02-17T04:45:25.909Z,100.00
2023-02-17T04:47:53.035Z,100.00
2023-02-17T04:50:22.501Z,100.00
2023-02-17T04:52:51.999Z,100.00
2023-02-17T04:55:21.568Z,100.00
2023-02-17T04:57:48.450Z,100.00
2023-02-17T05:00:15.751Z,100.00
2023-02-17T05:02:42.740Z,100.00
2023-02-17T05:05:09.773Z,100.00
2023-02-17T05:07:38.745Z,100.00
2023-02-17T05:10:08.525Z,100.00
2023-02-17T05:12:35.567Z,100.00
2023-02-17T05:15:02.872Z,100.00
2023-02-17T05:17:30.002Z,100.00
2023-02-17T05:19:57.136Z,100.00
2023-02-17T05:22:26.663Z,100.00
2023-02-17T05:24:56.289Z,100.00
2023-02-17T05:27:23.308Z,100.00
2023-02-17T05:29:51.454Z,100.00
2023-02-17T05:32:18.854Z,100.00
2023-02-17T05:34:52.808Z,100.00
2023-02-17T05:37:24.154Z,100.00
2023-02-17T05:39:51.031Z,100.00
2023-02-17T05:42:17.928Z,100.00
2023-02-17T05:44:49.952Z,100.00
2023-02-17T05:47:16.918Z,100.00
2023-02-17T05:49:46.368Z,100.00
2023-02-17T05:52:16.875Z,100.00
2023-02-17T05:54:48.875Z,100.00
2023-02-17T05:57:18.887Z,100.00
2023-02-17T05:59:45.745Z,100.00
2023-02-17T06:02:17.189Z,100.00
2023-02-17T06:04:44.135Z,100.00
2023-02-17T06:07:11.184Z,100.00
2023-02-17T06:09:41.006Z,100.00
2023-02-17T06:12:10.197Z,100.00
2023-02-17T06:14:40.525Z,100.00
2023-02-17T06:17:07.509Z,100.00
2023-02-17T06:19:34.381Z,100.00
2023-02-17T06:22:01.318Z,100.00
2023-02-17T06:24:32.780Z,100.00
2023-02-17T06:27:01.242Z,100.00
2023-02-17T06:29:28.158Z,100.00
2023-02-17T06:31:55.161Z,100.00
2023-02-17T06:34:22.150Z,100.00
2023-02-17T06:36:52.089Z,100.00
2023-02-17T06:39:23.608Z,100.00
2023-02-17T06:41:52.944Z,100.00
2023-02-17T06:44:22.449Z,100.00
2023-02-17T06:46:49.315Z,100.00
2023-02-17T06:49:18.503Z,100.00
2023-02-17T06:51:50.841Z,100.00
2023-02-17T06:54:17.775Z,100.00
2023-02-17T06:56:44.632Z,100.00
2023-02-17T06:59:11.704Z,100.00
2023-02-17T07:01:41.386Z,100.00
2023-02-17T07:04:12.904Z,100.00
2023-02-17T07:06:39.797Z,100.00
2023-02-17T07:09:06.636Z,100.00
2023-02-17T07:11:35.796Z,100.00
2023-02-17T07:14:02.959Z,100.00
2023-02-17T07:16:29.803Z,100.00
2023-02-17T07:19:00.240Z,100.00
2023-02-17T07:21:27.186Z,100.00
2023-02-17T07:23:54.184Z,100.00
2023-02-17T07:26:21.161Z,100.00
2023-02-17T07:28:48.233Z,100.00
2023-02-17T07:31:20.378Z,100.00
2023-02-17T07:33:48.668Z,100.00
2023-02-17T07:36:17.623Z,100.00
2023-02-17T07:38:44.981Z,100.00
2023-02-17T07:41:18.884Z,100.00
2023-02-17T07:43:47.268Z,100.00
2023-02-17T07:46:22.320Z,100.00
2023-02-17T07:48:49.203Z,100.00
2023-02-17T07:51:20.636Z,100.00
2023-02-17T07:53:51.585Z,100.00
2023-02-17T07:56:23.275Z,100.00
2023-02-17T07:58:50.413Z,100.00
2023-02-17T08:01:24.404Z,100.00
2023-02-17T08:03:52.099Z,100.00
2023-02-17T08:06:22.742Z,100.00
2023-02-17T08:09:09.720Z,100.00
2023-02-17T08:11:56.038Z,100.00
2023-02-17T08:14:25.413Z,100.00
2023-02-17T08:16:53.111Z,100.00
2023-02-17T08:19:20.156Z,100.00
2023-02-17T08:21:49.641Z,100.00
2023-02-17T08:24:16.667Z,100.00
2023-02-17T08:26:43.556Z,100.00
2023-02-17T08:29:12.957Z,100.00
2023-02-17T08:31:40.033Z,100.00
2023-02-17T08:34:10.490Z,100.00
2023-02-17T08:36:37.766Z,100.00
2023-02-17T08:39:16.405Z,100.00
2023-02-17T08:41:46.577Z,100.00
2023-02-17T08:44:16.965Z,100.00
2023-02-17T08:46:47.938Z,100.00
2023-02-17T08:49:21.067Z,100.00
2023-02-17T08:51:49.322Z,100.00
2023-02-17T08:54:16.520Z,100.00
2023-02-17T08:56:44.925Z,100.00
2023-02-17T08:59:13.345Z,100.00
2023-02-17T09:01:43.939Z,100.00
2023-02-17T09:04:14.295Z,100.00
2023-02-17T09:06:56.682Z,100.00
2023-02-17T09:09:29.302Z,100.00
2023-02-17T09:11:58.227Z,100.00
2023-02-17T09:14:27.781Z,100.00
2023-02-17T09:16:58.687Z,100.00
2023-02-17T09:19:26.309Z,100.00
2023-02-17T09:21:56.046Z,100.00
2023-02-17T09:24:23.210Z,100.00
2023-02-17T09:26:50.225Z,100.00
2023-02-17T09:29:19.747Z,100.00
2023-02-17T09:31:46.934Z,100.00
2023-02-17T09:34:14.772Z,100.00
2023-02-17T09:36:43.164Z,100.00
2023-02-17T09:39:14.924Z,100.00
2023-02-17T09:41:53.284Z,100.00
2023-02-17T09:44:26.051Z,100.00
2023-02-17T09:47:11.906Z,100.00
2023-02-17T09:49:49.583Z,100.00
2023-02-17T09:52:40.249Z,100.00
2023-02-17T09:55:15.578Z,100.00
2023-02-17T09:57:59.315Z,100.00
2023-02-17T10:00:33.768Z,100.00
2023-02-17T10:03:13.708Z,100.00
2023-02-17T10:05:51.693Z,100.00
2023-02-17T10:08:28.617Z,100.00
2023-02-17T10:11:08.075Z,100.00
2023-02-17T10:13:37.819Z,100.00
2023-02-17T10:16:10.750Z,100.00
2023-02-17T10:18:49.620Z,100.00
2023-02-17T10:21:29.857Z,100.00
2023-02-17T10:23:59.551Z,100.00
2023-02-17T10:26:53.535Z,100.00
2023-02-17T10:29:58.897Z,100.00
2023-02-17T10:32:28.649Z,100.00
2023-02-17T10:35:14.731Z,100.00
2023-02-17T10:37:48.312Z,100.00
2023-02-17T10:40:25.741Z,100.00
2023-02-17T10:43:00.934Z,100.00
2023-02-17T10:45:36.413Z,100.00
2023-02-17T10:48:08.664Z,100.00
2023-02-17T10:50:41.662Z,100.00
2023-02-17T10:53:25.126Z,100.00
2023-02-17T10:56:05.082Z,100.00
2023-02-17T10:58:56.913Z,100.00
2023-02-17T11:01:27.737Z,100.00
2023-02-17T11:04:13.956Z,100.00
2023-02-17T11:07:03.392Z,100.00
2023-02-17T11:09:33.159Z,100.00
2023-02-17T11:12:13.212Z,100.00
2023-02-17T11:14:47.337Z,100.00
2023-02-17T11:17:40.039Z,100.00
2023-02-17T11:20:29.736Z,100.00
2023-02-17T11:23:06.844Z,100.00
2023-02-17T11:25:37.816Z,100.00
2023-02-17T11:28:14.712Z,100.00
2023-02-17T11:30:52.268Z,100.00
2023-02-17T11:33:37.110Z,100.00
2023-02-17T11:36:07.556Z,100.00
2023-02-17T11:38:40.307Z,100.00
2023-02-17T11:41:08.464Z,100.00
2023-02-17T11:43:36.360Z,100.00
2023-02-17T11:46:24.215Z,100.00
2023-02-17T11:48:51.088Z,100.00
2023-02-17T11:51:50.567Z,100.00
2023-02-17T11:54:32.703Z,100.00
2023-02-17T11:57:28.768Z,100.00
2023-02-17T12:00:13.341Z,100.00
2023-02-17T12:03:05.044Z,100.00
2023-02-17T12:06:08.530Z,100.00
2023-02-17T12:09:32.133Z,100.00
2023-02-17T12:12:09.996Z,100.00
2023-02-17T12:14:45.739Z,100.00
2023-02-17T12:17:57.327Z,100.00
2023-02-17T12:20:37.007Z,100.00
2023-02-17T12:24:00.624Z,100.00
2023-02-17T12:26:38.501Z,100.00
2023-02-17T12:29:41.439Z,100.00
2023-02-17T12:32:22.562Z,100.00
2023-02-17T12:34:59.360Z,100.00
2023-02-17T12:37:32.974Z,100.00
2023-02-17T12:40:39.168Z,100.00
2023-02-17T12:43:39.904Z,100.00
2023-02-17T12:46:17.714Z,100.00
2023-02-17T12:48:55.734Z,100.00
2023-02-17T12:51:48.690Z,100.00
2023-02-17T12:54:35.893Z,100.00
2023-02-17T12:57:25.075Z,100.00
2023-02-17T12:59:57.286Z,100.00
2023-02-17T13:02:26.363Z,100.00
2023-02-17T13:04:59.601Z,100.00
2023-02-17T13:08:14.596Z,100.00
2023-02-17T13:10:41.743Z,100.00
2023-02-17T13:13:16.889Z,100.00
2023-02-17T13:15:48.549Z,100.00
2023-02-17T13:18:38.708Z,100.00
2023-02-17T13:21:22.827Z,100.00
2023-02-17T13:24:41.237Z,100.00
2023-02-17T13:27:33.901Z,100.00
2023-02-17T13:30:21.750Z,100.00
2023-02-17T13:33:02.561Z,100.00
2023-02-17T13:35:36.729Z,100.00
2023-02-17T13:38:04.518Z,100.00
2023-02-17T13:40:42.934Z,100.00
2023-02-17T13:43:17.378Z,100.00
2023-02-17T13:45:59.911Z,100.00
2023-02-17T13:48:34.758Z,100.00
2023-02-17T13:51:09.867Z,100.00
2023-02-17T13:53:40.493Z,100.00
2023-02-17T13:56:30.544Z,100.00
2023-02-17T13:59:18.284Z,100.00
2023-02-17T14:01:49.480Z,100.00
2023-02-17T14:04:28.281Z,100.00
2023-02-17T14:06:59.438Z,100.00
2023-02-17T14:09:34.893Z,100.00
2023-02-17T14:12:06.922Z,100.00
2023-02-17T14:14:37.939Z,100.00
2023-02-17T14:17:33.231Z,100.00
2023-02-17T14:20:00.995Z,100.00
2023-02-17T14:22:37.994Z,100.00
2023-02-17T14:25:14.203Z,100.00
2023-02-17T14:27:47.882Z,100.00
2023-02-17T14:30:28.399Z,100.00
2023-02-17T14:33:10.843Z,100.00
2023-02-17T14:35:39.374Z,100.00
2023-02-17T14:38:54.788Z,100.00
2023-02-17T14:41:24.177Z,100.00
2023-02-17T14:43:53.340Z,100.00
2023-02-17T14:46:22.933Z,100.00
2023-02-17T14:48:51.413Z,100.00
2023-02-17T14:51:22.424Z,100.00
2023-02-17T14:53:50.403Z,100.00
2023-02-17T14:56:32.612Z,100.00
2023-02-17T14:58:59.649Z,100.00
2023-02-17T15:01:26.780Z,100.00
2023-02-17T15:03:56.893Z,100.00
2023-02-17T15:06:41.624Z,100.00
2023-02-17T15:09:15.254Z,100.00
2023-02-17T15:11:45.673Z,100.00
2023-02-17T15:14:19.364Z,100.00
2023-02-17T15:16:50.437Z,100.00
2023-02-17T15:19:18.201Z,100.00
2023-02-17T15:21:51.141Z,100.00
2023-02-17T15:24:33.382Z,100.00
2023-02-17T15:27:02.872Z,100.00
2023-02-17T15:29:30.314Z,100.00
2023-02-17T15:32:03.503Z,100.00
2023-02-17T15:34:37.098Z,100.00
2023-02-17T15:37:04.025Z,100.00
2023-02-17T15:39:30.973Z,100.00
2023-02-17T15:42:10.452Z,100.00
2023-02-17T15:44:44.420Z,99.67
2023-02-17T15:47:19.057Z,97.91
2023-02-17T15:49:48.357Z,96.13
2023-02-17T15:52:15.748Z,93.11
2023-02-17T15:54:48.378Z,89.38
2023-02-17T15:57:24.472Z,84.60
2023-02-17T15:59:54.959Z,84.00
2023-02-17T16:02:24.515Z,82.32
2023-02-17T16:04:51.537Z,81.34
2023-02-17T16:07:18.563Z,80.23
2023-02-17T16:09:45.544Z,79.89
2023-02-17T16:12:19.145Z,79.43
2023-02-17T16:14:46.183Z,77.52
2023-02-17T16:17:16.984Z,78.85
2023-02-17T16:19:48.516Z,78.45
2023-02-17T16:22:18.531Z,78.38
2023-02-17T16:24:45.465Z,78.18
2023-02-17T16:27:15.965Z,78.38
2023-02-17T16:29:43.448Z,78.18
2023-02-17T16:32:13.778Z,78.52
2023-02-17T16:34:43.343Z,79.81
2023-02-17T16:37:20.972Z,80.01
2023-02-17T16:39:48.028Z,79.02
2023-02-17T16:42:15.700Z,79.45
2023-02-17T16:44:45.680Z,80.72
2023-02-17T16:47:22.642Z,79.69
2023-02-17T16:49:50.473Z,79.73
2023-02-17T16:52:26.100Z,79.09
2023-02-17T16:54:53.805Z,78.20
2023-02-17T16:57:23.775Z,78.69
2023-02-17T16:59:50.734Z,77.51
2023-02-17T17:02:22.334Z,78.11
2023-02-17T17:04:49.384Z,77.33
2023-02-17T17:07:18.349Z,77.68
2023-02-17T17:10:12.594Z,77.86
2023-02-17T17:12:35.200Z,77.88
2023-02-17T17:15:02.200Z,78.62
2023-02-17T17:17:30.244Z,77.48
2023-02-17T17:19:57.145Z,77.75
2023-02-17T17:22:26.198Z,78.31
2023-02-17T17:24:53.150Z,78.30
2023-02-17T17:27:20.158Z,78.19
2023-02-17T17:29:47.200Z,77.95
2023-02-17T17:32:17.870Z,77.92
2023-02-17T17:34:45.105Z,77.94
2023-02-17T17:37:14.564Z,77.10
2023-02-17T17:39:44.565Z,78.32
2023-02-17T17:42:11.977Z,78.29
2023-02-17T17:44:39.382Z,77.28
2023-02-17T17:47:21.327Z,77.68
2023-02-17T17:49:55.478Z,77.89
2023-02-17T17:52:23.019Z,77.70
2023-02-17T17:54:54.571Z,76.58
2023-02-17T17:57:23.795Z,76.51
2023-02-17T17:59:51.210Z,76.99
2023-02-17T18:02:18.160Z,76.09
2023-02-17T18:04:45.375Z,76.16
2023-02-17T18:07:12.540Z,75.91
2023-02-17T18:09:40.262Z,75.85
2023-02-17T18:12:16.608Z,76.18
2023-02-17T18:14:51.843Z,76.02
2023-02-17T18:17:23.153Z,75.45
2023-02-17T18:19:54.915Z,75.84
2023-02-17T18:22:24.593Z,75.99
2023-02-17T18:24:54.526Z,75.95
2023-02-17T18:27:23.727Z,76.31
2023-02-17T18:30:02.208Z,76.36
2023-02-17T18:32:29.615Z,76.05
2023-02-17T18:34:59.074Z,76.71
2023-02-17T18:37:26.175Z,76.11
2023-02-17T18:39:53.026Z,75.70
2023-02-17T18:42:19.980Z,76.50
2023-02-17T18:44:49.106Z,76.26
2023-02-17T18:47:16.094Z,75.99
2023-02-17T18:49:43.045Z,76.03
2023-02-17T18:52:10.534Z,76.75
2023-02-17T18:54:45.278Z,76.21
2023-02-17T18:57:12.516Z,77.39
2023-02-17T18:59:42.491Z,77.27
2023-02-17T19:02:11.412Z,76.78
2023-02-17T19:04:43.403Z,76.88
2023-02-17T19:07:10.744Z,76.46
2023-02-17T19:09:44.092Z,76.51
2023-02-17T19:12:16.208Z,76.57
2023-02-17T19:14:43.216Z,77.63
2023-02-17T19:17:11.306Z,76.96
2023-02-17T19:19:41.992Z,76.43
2023-02-17T19:22:09.545Z,76.68
2023-02-17T19:24:41.612Z,75.80
2023-02-17T19:27:09.088Z,76.06
2023-02-17T19:29:38.448Z,75.74
2023-02-17T19:32:05.589Z,75.84
2023-02-17T19:34:32.683Z,75.81
2023-02-17T19:37:04.338Z,75.65
2023-02-17T19:39:32.012Z,76.28
2023-02-17T19:41:58.974Z,76.44
2023-02-17T19:44:30.786Z,76.58
2023-02-17T19:47:00.299Z,76.30
2023-02-17T19:49:34.027Z,77.16
2023-02-17T19:52:01.147Z,76.79
2023-02-17T19:54:28.218Z,77.07
2023-02-17T19:56:57.423Z,77.05
2023-02-17T19:59:24.668Z,77.54
2023-02-17T20:01:51.769Z,78.46
2023-02-17T20:04:20.241Z,77.53
2023-02-17T20:06:48.238Z,78.34
2023-02-17T20:09:22.759Z,77.79
2023-02-17T20:11:53.525Z,77.78
2023-02-17T20:14:21.392Z,77.92
2023-02-17T20:16:53.307Z,78.68
2023-02-17T20:19:22.949Z,78.33
2023-02-17T20:21:54.507Z,79.16
2023-02-17T20:24:21.738Z,78.51
2023-02-17T20:26:53.598Z,78.66
2023-02-17T20:29:20.796Z,77.84
2023-02-17T20:31:48.100Z,78.61
2023-02-17T20:34:33.477Z,78.72
2023-02-17T20:37:07.913Z,78.23
2023-02-17T20:39:39.751Z,77.95
2023-02-17T20:42:06.774Z,78.18
2023-02-17T20:44:38.805Z,79.12
2023-02-17T20:47:06.056Z,78.98
2023-02-17T20:49:36.315Z,78.91
2023-02-17T20:52:03.514Z,79.16
2023-02-17T20:54:35.837Z,79.11
2023-02-17T20:57:05.260Z,79.16
2023-02-17T20:59:33.234Z,78.62
2023-02-17T21:02:00.161Z,79.14
2023-02-17T21:04:27.256Z,77.84
2023-02-17T21:06:56.866Z,78.52
2023-02-17T21:09:26.477Z,78.18
2023-02-17T21:11:53.978Z,77.47
2023-02-17T21:14:22.948Z,78.10
2023-02-17T21:16:52.964Z,78.31
2023-02-17T21:19:22.883Z,78.39
2023-02-17T21:21:49.834Z,78.98
2023-02-17T21:24:22.589Z,79.09
2023-02-17T21:26:52.098Z,78.68
2023-02-17T21:29:21.974Z,78.82
2023-02-17T21:31:49.019Z,78.12
2023-02-17T21:34:18.136Z,79.16
2023-02-17T21:36:47.674Z,79.11
2023-02-17T21:39:17.666Z,79.75
2023-02-17T21:41:44.540Z,78.54
2023-02-17T21:44:32.600Z,79.39
2023-02-17T21:46:59.495Z,79.00
2023-02-17T21:49:28.654Z,79.24
2023-02-17T21:52:01.059Z,79.76
2023-02-17T21:54:28.000Z,79.56
2023-02-17T21:56:54.974Z,79.44
2023-02-17T21:59:21.904Z,78.87
2023-02-17T22:01:48.820Z,78.85
2023-02-17T22:04:15.719Z,78.96
2023-02-17T22:06:46.209Z,79.52
2023-02-17T22:09:18.276Z,79.28
2023-02-17T22:11:49.513Z,78.64
2023-02-17T22:14:20.795Z,78.95
2023-02-17T22:16:49.174Z,79.20
2023-02-17T22:19:22.540Z,80.05
2023-02-17T22:21:51.427Z,78.80
2023-02-17T22:24:20.748Z,80.03
2023-02-17T22:26:50.241Z,79.89
2023-02-17T22:29:17.157Z,79.60
2023-02-17T22:31:44.252Z,79.16
2023-02-17T22:34:14.035Z,79.02
2023-02-17T22:36:41.110Z,79.49
2023-02-17T22:39:08.678Z,78.85
2023-02-17T22:41:36.733Z,78.52
2023-02-17T22:44:09.205Z,79.03
2023-02-17T22:46:41.687Z,78.62
2023-02-17T22:49:14.185Z,78.92
2023-02-17T22:51:41.348Z,78.32
2023-02-17T22:54:09.136Z,78.66
2023-02-17T22:56:39.077Z,78.04
2023-02-17T22:59:07.063Z,78.20
2023-02-17T23:01:38.189Z,77.81
2023-02-17T23:04:05.813Z,78.50
2023-02-17T23:06:38.066Z,78.21
2023-02-17T23:09:10.406Z,78.59
2023-02-17T23:11:49.964Z,78.85
2023-02-17T23:14:25.643Z,78.90
2023-02-17T23:17:00.179Z,78.58
2023-02-17T23:19:33.317Z,78.42
2023-02-17T23:22:05.584Z,78.93
2023-02-17T23:24:34.735Z,78.92
2023-02-17T23:27:03.255Z,77.84
2023-02-17T23:29:33.666Z,78.95
2023-02-17T23:32:04.022Z,78.83
2023-02-17T23:34:31.246Z,79.10
2023-02-17T23:37:00.924Z,78.65
2023-02-17T23:39:28.291Z,79.37
2023-02-17T23:41:57.389Z,79.41
2023-02-17T23:44:24.498Z,78.91
2023-02-17T23:46:54.014Z,79.48
2023-02-17T23:49:21.020Z,79.42
2023-02-17T23:51:50.104Z,79.69
2023-02-17T23:54:17.032Z,81.72
2023-02-17T23:56:46.253Z,81.98
2023-02-17T23:59:14.822Z,81.59
